sensor_id;sensor_type;location;lat;lon;timestamp;P1;durP1;ratioP1;P2;durP2;ratioP2
8213;SDS011;4148;47.974;7.824;2023-07-24T00:02:12;9.97;;;6.80;;
8213;SDS011;4148;47.974;7.824;2023-07-24T00:04:40;10.20;;;7.23;;
8213;SDS011;4148;47.974;7.824;2023-07-24T00:07:08;11.50;;;7.90;;
8213;SDS011;4148;47.974;7.824;2023-07-24T00:09:36;9.93;;;7.43;;
8213;SDS011;4148;47.974;7.824;2023-07-24T00:12:04;10.90;;;6.87;;
8213;SDS011;4148;47.974;7.824;2023-07-24T00:14:33;11.13;;;7.93;;
8213;SDS011;4148;47.974;7.824;2023-07-24T00:17:02;13.37;;;8.50;;
8213;SDS011;4148;47.974;7.824;2023-07-24T00:19:30;10.87;;;6.73;;
8213;SDS011;4148;47.974;7.824;2023-07-24T00:21:58;12.10;;;8.10;;
8213;SDS011;4148;47.974;7.824;2023-07-24T00:24:26;12.53;;;8.10;;
8213;SDS011;4148;47.974;7.824;2023-07-24T00:26:54;15.97;;;7.33;;
8213;SDS011;4148;47.974;7.824;2023-07-24T00:29:22;10.73;;;7.17;;
8213;SDS011;4148;47.974;7.824;2023-07-24T00:31:50;10.83;;;7.00;;
8213;SDS011;4148;47.974;7.824;2023-07-24T00:34:19;12.17;;;7.33;;
8213;SDS011;4148;47.974;7.824;2023-07-24T00:36:47;12.47;;;8.13;;
8213;SDS011;4148;47.974;7.824;2023-07-24T00:39:15;12.40;;;8.33;;
8213;SDS011;4148;47.974;7.824;2023-07-24T00:41:43;12.50;;;7.43;;
8213;SDS011;4148;47.974;7.824;2023-07-24T00:44:11;11.00;;;7.73;;
8213;SDS011;4148;47.974;7.824;2023-07-24T00:46:39;10.07;;;7.80;;
8213;SDS011;4148;47.974;7.824;2023-07-24T00:49:07;10.00;;;7.10;;
8213;SDS011;4148;47.974;7.824;2023-07-24T00:51:37;11.03;;;7.27;;
8213;SDS011;4148;47.974;7.824;2023-07-24T00:54:06;10.00;;;7.73;;
8213;SDS011;4148;47.974;7.824;2023-07-24T00:56:34;12.67;;;7.73;;
8213;SDS011;4148;47.974;7.824;2023-07-24T00:59:02;11.37;;;7.87;;
8213;SDS011;4148;47.974;7.824;2023-07-24T01:01:30;13.73;;;8.73;;
8213;SDS011;4148;47.974;7.824;2023-07-24T01:03:58;9.40;;;7.57;;
8213;SDS011;4148;47.974;7.824;2023-07-24T01:06:26;9.93;;;7.50;;
8213;SDS011;4148;47.974;7.824;2023-07-24T01:08:56;15.13;;;8.13;;
8213;SDS011;4148;47.974;7.824;2023-07-24T01:11:24;11.10;;;8.47;;
8213;SDS011;4148;47.974;7.824;2023-07-24T01:13:56;10.90;;;7.83;;
8213;SDS011;4148;47.974;7.824;2023-07-24T01:16:29;11.93;;;8.43;;
8213;SDS011;4148;47.974;7.824;2023-07-24T01:19:04;9.10;;;7.27;;
8213;SDS011;4148;47.974;7.824;2023-07-24T01:21:44;12.00;;;7.97;;
8213;SDS011;4148;47.974;7.824;2023-07-24T01:24:24;10.20;;;7.50;;
8213;SDS011;4148;47.974;7.824;2023-07-24T01:26:59;8.93;;;6.37;;
8213;SDS011;4148;47.974;7.824;2023-07-24T01:29:27;13.17;;;8.00;;
8213;SDS011;4148;47.974;7.824;2023-07-24T01:31:54;10.37;;;7.20;;
8213;SDS011;4148;47.974;7.824;2023-07-24T01:34:23;9.60;;;7.43;;
8213;SDS011;4148;47.974;7.824;2023-07-24T01:36:50;9.00;;;6.73;;
8213;SDS011;4148;47.974;7.824;2023-07-24T01:39:18;10.87;;;7.03;;
8213;SDS011;4148;47.974;7.824;2023-07-24T01:41:48;11.07;;;7.40;;
8213;SDS011;4148;47.974;7.824;2023-07-24T01:44:18;11.70;;;7.60;;
8213;SDS011;4148;47.974;7.824;2023-07-24T01:46:46;10.63;;;7.27;;
8213;SDS011;4148;47.974;7.824;2023-07-24T01:49:15;10.17;;;7.63;;
8213;SDS011;4148;47.974;7.824;2023-07-24T01:51:42;11.70;;;7.77;;
8213;SDS011;4148;47.974;7.824;2023-07-24T01:54:10;10.23;;;7.43;;
8213;SDS011;4148;47.974;7.824;2023-07-24T01:56:38;10.30;;;6.67;;
8213;SDS011;4148;47.974;7.824;2023-07-24T01:59:06;10.10;;;6.90;;
8213;SDS011;4148;47.974;7.824;2023-07-24T02:01:36;8.67;;;6.93;;
8213;SDS011;4148;47.974;7.824;2023-07-24T02:04:04;11.30;;;7.83;;
8213;SDS011;4148;47.974;7.824;2023-07-24T02:06:31;9.60;;;7.23;;
8213;SDS011;4148;47.974;7.824;2023-07-24T02:08:59;11.50;;;7.47;;
8213;SDS011;4148;47.974;7.824;2023-07-24T02:11:27;9.80;;;7.33;;
8213;SDS011;4148;47.974;7.824;2023-07-24T02:13:56;10.83;;;7.27;;
8213;SDS011;4148;47.974;7.824;2023-07-24T02:16:24;13.13;;;8.67;;
8213;SDS011;4148;47.974;7.824;2023-07-24T02:18:53;12.37;;;7.37;;
8213;SDS011;4148;47.974;7.824;2023-07-24T02:21:21;12.37;;;7.47;;
8213;SDS011;4148;47.974;7.824;2023-07-24T02:23:48;10.30;;;7.60;;
8213;SDS011;4148;47.974;7.824;2023-07-24T02:26:16;10.67;;;7.63;;
8213;SDS011;4148;47.974;7.824;2023-07-24T02:28:44;9.63;;;7.13;;
8213;SDS011;4148;47.974;7.824;2023-07-24T02:31:12;8.77;;;7.20;;
8213;SDS011;4148;47.974;7.824;2023-07-24T02:33:40;11.40;;;7.63;;
8213;SDS011;4148;47.974;7.824;2023-07-24T02:36:09;10.40;;;7.50;;
8213;SDS011;4148;47.974;7.824;2023-07-24T02:38:37;11.00;;;7.60;;
8213;SDS011;4148;47.974;7.824;2023-07-24T02:41:05;14.00;;;8.00;;
8213;SDS011;4148;47.974;7.824;2023-07-24T02:43:32;10.97;;;7.97;;
8213;SDS011;4148;47.974;7.824;2023-07-24T02:46:00;10.53;;;7.47;;
8213;SDS011;4148;47.974;7.824;2023-07-24T02:48:28;11.63;;;7.73;;
8213;SDS011;4148;47.974;7.824;2023-07-24T02:50:56;11.87;;;7.60;;
8213;SDS011;4148;47.974;7.824;2023-07-24T02:53:26;9.73;;;6.93;;
8213;SDS011;4148;47.974;7.824;2023-07-24T02:55:53;12.17;;;7.93;;
8213;SDS011;4148;47.974;7.824;2023-07-24T02:58:21;9.30;;;7.30;;
8213;SDS011;4148;47.974;7.824;2023-07-24T03:00:49;12.83;;;7.43;;
8213;SDS011;4148;47.974;7.824;2023-07-24T03:03:17;11.97;;;7.80;;
8213;SDS011;4148;47.974;7.824;2023-07-24T03:05:45;12.23;;;8.73;;
8213;SDS011;4148;47.974;7.824;2023-07-24T03:08:13;12.27;;;7.53;;
8213;SDS011;4148;47.974;7.824;2023-07-24T03:10:42;10.80;;;7.20;;
8213;SDS011;4148;47.974;7.824;2023-07-24T03:13:10;11.87;;;7.60;;
8213;SDS011;4148;47.974;7.824;2023-07-24T03:15:38;11.20;;;8.10;;
8213;SDS011;4148;47.974;7.824;2023-07-24T03:18:06;13.43;;;7.73;;
8213;SDS011;4148;47.974;7.824;2023-07-24T03:20:34;9.47;;;7.13;;
8213;SDS011;4148;47.974;7.824;2023-07-24T03:23:02;10.20;;;7.20;;
8213;SDS011;4148;47.974;7.824;2023-07-24T03:25:29;10.77;;;7.03;;
8213;SDS011;4148;47.974;7.824;2023-07-24T03:28:03;8.47;;;6.67;;
8213;SDS011;4148;47.974;7.824;2023-07-24T03:30:31;9.43;;;7.20;;
8213;SDS011;4148;47.974;7.824;2023-07-24T03:32:59;11.33;;;7.70;;
8213;SDS011;4148;47.974;7.824;2023-07-24T03:35:27;10.73;;;6.83;;
8213;SDS011;4148;47.974;7.824;2023-07-24T03:37:55;9.40;;;7.13;;
8213;SDS011;4148;47.974;7.824;2023-07-24T03:40:23;11.40;;;7.97;;
8213;SDS011;4148;47.974;7.824;2023-07-24T03:42:51;10.53;;;7.70;;
8213;SDS011;4148;47.974;7.824;2023-07-24T03:45:20;10.17;;;7.57;;
8213;SDS011;4148;47.974;7.824;2023-07-24T03:47:48;12.40;;;8.47;;
8213;SDS011;4148;47.974;7.824;2023-07-24T03:50:16;12.37;;;8.57;;
8213;SDS011;4148;47.974;7.824;2023-07-24T03:52:44;9.20;;;7.07;;
8213;SDS011;4148;47.974;7.824;2023-07-24T03:55:12;12.30;;;7.40;;
8213;SDS011;4148;47.974;7.824;2023-07-24T03:57:40;9.87;;;7.30;;
8213;SDS011;4148;47.974;7.824;2023-07-24T04:00:08;10.23;;;7.60;;
8213;SDS011;4148;47.974;7.824;2023-07-24T04:02:38;11.50;;;7.80;;
8213;SDS011;4148;47.974;7.824;2023-07-24T04:05:06;9.93;;;7.10;;
8213;SDS011;4148;47.974;7.824;2023-07-24T04:07:35;10.60;;;8.07;;
8213;SDS011;4148;47.974;7.824;2023-07-24T04:10:03;10.10;;;7.47;;
8213;SDS011;4148;47.974;7.824;2023-07-24T04:12:32;10.77;;;7.50;;
8213;SDS011;4148;47.974;7.824;2023-07-24T04:15:00;11.53;;;7.83;;
8213;SDS011;4148;47.974;7.824;2023-07-24T04:17:28;11.13;;;8.00;;
8213;SDS011;4148;47.974;7.824;2023-07-24T04:19:57;9.80;;;7.33;;
8213;SDS011;4148;47.974;7.824;2023-07-24T04:22:25;14.20;;;8.30;;
8213;SDS011;4148;47.974;7.824;2023-07-24T04:24:52;12.53;;;8.00;;
8213;SDS011;4148;47.974;7.824;2023-07-24T04:27:20;13.93;;;8.20;;
8213;SDS011;4148;47.974;7.824;2023-07-24T04:29:48;10.17;;;7.40;;
8213;SDS011;4148;47.974;7.824;2023-07-24T04:32:16;11.23;;;7.53;;
8213;SDS011;4148;47.974;7.824;2023-07-24T04:34:44;10.83;;;7.60;;
8213;SDS011;4148;47.974;7.824;2023-07-24T04:37:13;10.87;;;7.43;;
8213;SDS011;4148;47.974;7.824;2023-07-24T04:39:42;11.43;;;8.27;;
8213;SDS011;4148;47.974;7.824;2023-07-24T04:42:10;12.17;;;8.27;;
8213;SDS011;4148;47.974;7.824;2023-07-24T04:44:38;9.43;;;7.80;;
8213;SDS011;4148;47.974;7.824;2023-07-24T04:47:06;11.20;;;7.77;;
8213;SDS011;4148;47.974;7.824;2023-07-24T04:49:34;13.97;;;7.17;;
8213;SDS011;4148;47.974;7.824;2023-07-24T04:52:02;12.27;;;8.17;;
8213;SDS011;4148;47.974;7.824;2023-07-24T04:54:31;11.00;;;7.80;;
8213;SDS011;4148;47.974;7.824;2023-07-24T04:56:59;12.37;;;7.50;;
8213;SDS011;4148;47.974;7.824;2023-07-24T04:59:27;11.23;;;7.67;;
8213;SDS011;4148;47.974;7.824;2023-07-24T05:01:55;10.73;;;8.00;;
8213;SDS011;4148;47.974;7.824;2023-07-24T05:04:23;11.13;;;7.57;;
8213;SDS011;4148;47.974;7.824;2023-07-24T05:06:51;10.50;;;7.17;;
8213;SDS011;4148;47.974;7.824;2023-07-24T05:09:18;10.50;;;6.97;;
8213;SDS011;4148;47.974;7.824;2023-07-24T05:11:48;13.00;;;6.57;;
8213;SDS011;4148;47.974;7.824;2023-07-24T05:14:15;13.43;;;7.70;;
8213;SDS011;4148;47.974;7.824;2023-07-24T05:16:43;11.30;;;6.97;;
8213;SDS011;4148;47.974;7.824;2023-07-24T05:19:11;10.47;;;7.33;;
8213;SDS011;4148;47.974;7.824;2023-07-24T05:21:39;9.10;;;6.60;;
8213;SDS011;4148;47.974;7.824;2023-07-24T05:24:07;9.50;;;6.50;;
8213;SDS011;4148;47.974;7.824;2023-07-24T05:26:35;11.80;;;6.70;;
8213;SDS011;4148;47.974;7.824;2023-07-24T05:29:04;9.43;;;6.53;;
8213;SDS011;4148;47.974;7.824;2023-07-24T05:31:33;8.40;;;6.20;;
8213;SDS011;4148;47.974;7.824;2023-07-24T05:34:01;8.90;;;6.27;;
8213;SDS011;4148;47.974;7.824;2023-07-24T05:36:29;9.87;;;6.90;;
8213;SDS011;4148;47.974;7.824;2023-07-24T05:38:58;9.83;;;7.00;;
8213;SDS011;4148;47.974;7.824;2023-07-24T05:41:26;7.83;;;5.80;;
8213;SDS011;4148;47.974;7.824;2023-07-24T05:43:53;9.40;;;6.10;;
8213;SDS011;4148;47.974;7.824;2023-07-24T05:46:23;8.70;;;6.23;;
8213;SDS011;4148;47.974;7.824;2023-07-24T05:48:51;7.43;;;5.90;;
8213;SDS011;4148;47.974;7.824;2023-07-24T05:51:18;7.80;;;6.00;;
8213;SDS011;4148;47.974;7.824;2023-07-24T05:53:46;8.83;;;5.90;;
8213;SDS011;4148;47.974;7.824;2023-07-24T05:56:14;9.63;;;6.37;;
8213;SDS011;4148;47.974;7.824;2023-07-24T05:58:42;9.23;;;5.77;;
8213;SDS011;4148;47.974;7.824;2023-07-24T06:01:10;7.40;;;5.30;;
8213;SDS011;4148;47.974;7.824;2023-07-24T06:03:39;8.60;;;5.80;;
8213;SDS011;4148;47.974;7.824;2023-07-24T06:06:07;10.20;;;6.30;;
8213;SDS011;4148;47.974;7.824;2023-07-24T06:08:35;7.10;;;5.43;;
8213;SDS011;4148;47.974;7.824;2023-07-24T06:11:03;7.67;;;5.53;;
8213;SDS011;4148;47.974;7.824;2023-07-24T06:13:31;8.70;;;6.37;;
8213;SDS011;4148;47.974;7.824;2023-07-24T06:15:58;8.50;;;5.57;;
8213;SDS011;4148;47.974;7.824;2023-07-24T06:18:26;8.33;;;5.23;;
8213;SDS011;4148;47.974;7.824;2023-07-24T06:20:55;11.80;;;4.70;;
8213;SDS011;4148;47.974;7.824;2023-07-24T06:23:23;6.97;;;4.20;;
8213;SDS011;4148;47.974;7.824;2023-07-24T06:25:50;5.53;;;4.70;;
8213;SDS011;4148;47.974;7.824;2023-07-24T06:28:19;5.83;;;4.20;;
8213;SDS011;4148;47.974;7.824;2023-07-24T06:30:47;5.80;;;4.10;;
8213;SDS011;4148;47.974;7.824;2023-07-24T06:33:14;5.20;;;3.97;;
8213;SDS011;4148;47.974;7.824;2023-07-24T06:35:42;8.27;;;4.37;;
8213;SDS011;4148;47.974;7.824;2023-07-24T06:38:12;6.00;;;4.40;;
8213;SDS011;4148;47.974;7.824;2023-07-24T06:40:40;7.50;;;4.60;;
8213;SDS011;4148;47.974;7.824;2023-07-24T06:43:08;6.30;;;4.63;;
8213;SDS011;4148;47.974;7.824;2023-07-24T06:45:36;5.70;;;3.93;;
8213;SDS011;4148;47.974;7.824;2023-07-24T06:48:04;5.97;;;3.97;;
8213;SDS011;4148;47.974;7.824;2023-07-24T06:50:32;5.20;;;4.30;;
8213;SDS011;4148;47.974;7.824;2023-07-24T06:53:00;5.47;;;3.67;;
8213;SDS011;4148;47.974;7.824;2023-07-24T06:55:29;5.80;;;4.07;;
8213;SDS011;4148;47.974;7.824;2023-07-24T06:57:57;8.10;;;4.47;;
8213;SDS011;4148;47.974;7.824;2023-07-24T07:00:25;6.10;;;4.30;;
8213;SDS011;4148;47.974;7.824;2023-07-24T07:02:52;7.57;;;4.40;;
8213;SDS011;4148;47.974;7.824;2023-07-24T07:05:20;5.27;;;4.13;;
8213;SDS011;4148;47.974;7.824;2023-07-24T07:07:48;6.40;;;3.93;;
8213;SDS011;4148;47.974;7.824;2023-07-24T07:10:16;6.40;;;4.30;;
8213;SDS011;4148;47.974;7.824;2023-07-24T07:12:45;6.40;;;4.80;;
8213;SDS011;4148;47.974;7.824;2023-07-24T07:15:13;6.30;;;4.87;;
8213;SDS011;4148;47.974;7.824;2023-07-24T07:17:42;7.17;;;4.30;;
8213;SDS011;4148;47.974;7.824;2023-07-24T07:20:10;7.87;;;4.97;;
8213;SDS011;4148;47.974;7.824;2023-07-24T07:22:37;6.47;;;4.80;;
8213;SDS011;4148;47.974;7.824;2023-07-24T07:25:06;7.20;;;5.30;;
8213;SDS011;4148;47.974;7.824;2023-07-24T07:27:34;7.27;;;4.60;;
8213;SDS011;4148;47.974;7.824;2023-07-24T07:30:03;6.50;;;4.90;;
8213;SDS011;4148;47.974;7.824;2023-07-24T07:32:32;6.83;;;4.73;;
8213;SDS011;4148;47.974;7.824;2023-07-24T07:35:00;8.60;;;5.83;;
8213;SDS011;4148;47.974;7.824;2023-07-24T07:37:29;7.00;;;5.40;;
8213;SDS011;4148;47.974;7.824;2023-07-24T07:39:57;9.40;;;5.47;;
8213;SDS011;4148;47.974;7.824;2023-07-24T07:42:25;6.77;;;5.47;;
8213;SDS011;4148;47.974;7.824;2023-07-24T07:44:53;8.87;;;5.17;;
8213;SDS011;4148;47.974;7.824;2023-07-24T07:47:22;7.03;;;4.70;;
8213;SDS011;4148;47.974;7.824;2023-07-24T07:49:50;6.73;;;5.20;;
8213;SDS011;4148;47.974;7.824;2023-07-24T07:52:18;7.27;;;4.80;;
8213;SDS011;4148;47.974;7.824;2023-07-24T07:54:48;8.23;;;6.07;;
8213;SDS011;4148;47.974;7.824;2023-07-24T07:57:16;7.60;;;5.30;;
8213;SDS011;4148;47.974;7.824;2023-07-24T07:59:44;9.80;;;5.40;;
8213;SDS011;4148;47.974;7.824;2023-07-24T08:02:12;10.93;;;6.20;;
8213;SDS011;4148;47.974;7.824;2023-07-24T08:04:41;6.40;;;5.30;;
8213;SDS011;4148;47.974;7.824;2023-07-24T08:07:09;6.70;;;5.00;;
8213;SDS011;4148;47.974;7.824;2023-07-24T08:09:37;7.47;;;5.07;;
8213;SDS011;4148;47.974;7.824;2023-07-24T08:12:05;9.13;;;5.50;;
8213;SDS011;4148;47.974;7.824;2023-07-24T08:14:34;10.23;;;6.17;;
8213;SDS011;4148;47.974;7.824;2023-07-24T08:17:02;9.53;;;6.00;;
8213;SDS011;4148;47.974;7.824;2023-07-24T08:19:30;6.43;;;4.97;;
8213;SDS011;4148;47.974;7.824;2023-07-24T08:21:59;7.77;;;5.73;;
8213;SDS011;4148;47.974;7.824;2023-07-24T08:24:27;7.50;;;5.70;;
8213;SDS011;4148;47.974;7.824;2023-07-24T08:26:55;7.57;;;5.53;;
8213;SDS011;4148;47.974;7.824;2023-07-24T08:29:23;8.27;;;6.03;;
8213;SDS011;4148;47.974;7.824;2023-07-24T08:31:51;8.70;;;5.70;;
8213;SDS011;4148;47.974;7.824;2023-07-24T08:34:19;5.97;;;5.37;;
8213;SDS011;4148;47.974;7.824;2023-07-24T08:36:47;7.30;;;5.77;;
8213;SDS011;4148;47.974;7.824;2023-07-24T08:39:16;8.90;;;6.10;;
8213;SDS011;4148;47.974;7.824;2023-07-24T08:41:44;8.03;;;5.87;;
8213;SDS011;4148;47.974;7.824;2023-07-24T08:44:12;9.30;;;5.53;;
8213;SDS011;4148;47.974;7.824;2023-07-24T08:46:40;7.93;;;6.07;;
8213;SDS011;4148;47.974;7.824;2023-07-24T08:49:12;8.67;;;6.30;;
8213;SDS011;4148;47.974;7.824;2023-07-24T08:51:40;8.13;;;6.10;;
8213;SDS011;4148;47.974;7.824;2023-07-24T08:54:08;8.83;;;6.13;;
8213;SDS011;4148;47.974;7.824;2023-07-24T08:56:38;13.90;;;7.00;;
8213;SDS011;4148;47.974;7.824;2023-07-24T08:59:08;11.87;;;6.80;;
8213;SDS011;4148;47.974;7.824;2023-07-24T09:01:35;11.03;;;6.67;;
8213;SDS011;4148;47.974;7.824;2023-07-24T09:04:03;11.87;;;6.90;;
8213;SDS011;4148;47.974;7.824;2023-07-24T09:06:31;10.00;;;6.90;;
8213;SDS011;4148;47.974;7.824;2023-07-24T09:08:59;7.80;;;6.20;;
8213;SDS011;4148;47.974;7.824;2023-07-24T09:11:28;10.20;;;6.80;;
8213;SDS011;4148;47.974;7.824;2023-07-24T09:13:57;10.97;;;7.07;;
8213;SDS011;4148;47.974;7.824;2023-07-24T09:16:25;13.50;;;8.13;;
8213;SDS011;4148;47.974;7.824;2023-07-24T09:18:54;10.37;;;6.27;;
8213;SDS011;4148;47.974;7.824;2023-07-24T09:21:36;14.00;;;7.40;;
8213;SDS011;4148;47.974;7.824;2023-07-24T09:24:10;11.17;;;6.40;;
8213;SDS011;4148;47.974;7.824;2023-07-24T09:26:49;11.77;;;6.50;;
8213;SDS011;4148;47.974;7.824;2023-07-24T09:29:29;8.83;;;3.97;;
8213;SDS011;4148;47.974;7.824;2023-07-24T09:31:58;8.07;;;4.23;;
8213;SDS011;4148;47.974;7.824;2023-07-24T09:34:26;5.43;;;3.27;;
8213;SDS011;4148;47.974;7.824;2023-07-24T09:36:54;4.30;;;2.30;;
8213;SDS011;4148;47.974;7.824;2023-07-24T09:39:23;5.53;;;2.50;;
8213;SDS011;4148;47.974;7.824;2023-07-24T09:41:52;4.30;;;2.00;;
8213;SDS011;4148;47.974;7.824;2023-07-24T09:44:21;6.27;;;3.13;;
8213;SDS011;4148;47.974;7.824;2023-07-24T09:46:53;2.73;;;1.97;;
8213;SDS011;4148;47.974;7.824;2023-07-24T09:49:24;5.50;;;2.30;;
8213;SDS011;4148;47.974;7.824;2023-07-24T09:51:55;5.03;;;2.70;;
8213;SDS011;4148;47.974;7.824;2023-07-24T09:54:28;4.33;;;2.50;;
8213;SDS011;4148;47.974;7.824;2023-07-24T09:56:59;3.87;;;2.70;;
8213;SDS011;4148;47.974;7.824;2023-07-24T09:59:44;4.90;;;3.40;;
8213;SDS011;4148;47.974;7.824;2023-07-24T10:02:14;5.00;;;2.80;;
8213;SDS011;4148;47.974;7.824;2023-07-24T10:04:42;4.70;;;2.33;;
8213;SDS011;4148;47.974;7.824;2023-07-24T10:07:11;4.30;;;2.40;;
8213;SDS011;4148;47.974;7.824;2023-07-24T10:09:42;3.43;;;2.07;;
8213;SDS011;4148;47.974;7.824;2023-07-24T10:12:11;4.33;;;1.93;;
8213;SDS011;4148;47.974;7.824;2023-07-24T10:14:39;3.50;;;2.07;;
8213;SDS011;4148;47.974;7.824;2023-07-24T10:17:07;2.80;;;1.73;;
8213;SDS011;4148;47.974;7.824;2023-07-24T10:19:37;3.90;;;2.10;;
8213;SDS011;4148;47.974;7.824;2023-07-24T10:22:08;6.17;;;2.57;;
8213;SDS011;4148;47.974;7.824;2023-07-24T10:24:37;12.67;;;2.80;;
8213;SDS011;4148;47.974;7.824;2023-07-24T10:27:08;5.07;;;3.30;;
8213;SDS011;4148;47.974;7.824;2023-07-24T10:29:36;5.73;;;3.27;;
8213;SDS011;4148;47.974;7.824;2023-07-24T10:32:05;6.00;;;3.40;;
8213;SDS011;4148;47.974;7.824;2023-07-24T10:34:45;7.30;;;4.30;;
8213;SDS011;4148;47.974;7.824;2023-07-24T10:37:30;5.57;;;3.80;;
8213;SDS011;4148;47.974;7.824;2023-07-24T10:40:00;5.00;;;3.40;;
8213;SDS011;4148;47.974;7.824;2023-07-24T10:42:29;6.00;;;4.03;;
8213;SDS011;4148;47.974;7.824;2023-07-24T10:45:03;6.40;;;4.10;;
8213;SDS011;4148;47.974;7.824;2023-07-24T10:47:32;8.13;;;5.70;;
8213;SDS011;4148;47.974;7.824;2023-07-24T10:50:01;4.57;;;3.70;;
8213;SDS011;4148;47.974;7.824;2023-07-24T10:52:30;6.50;;;4.10;;
8213;SDS011;4148;47.974;7.824;2023-07-24T10:54:59;5.00;;;3.70;;
8213;SDS011;4148;47.974;7.824;2023-07-24T10:57:28;5.83;;;3.83;;
8213;SDS011;4148;47.974;7.824;2023-07-24T10:59:57;5.73;;;4.33;;
8213;SDS011;4148;47.974;7.824;2023-07-24T11:02:26;6.07;;;4.50;;
8213;SDS011;4148;47.974;7.824;2023-07-24T11:04:54;4.80;;;3.70;;
8213;SDS011;4148;47.974;7.824;2023-07-24T11:07:32;4.60;;;3.40;;
8213;SDS011;4148;47.974;7.824;2023-07-24T11:10:00;3.40;;;2.80;;
8213;SDS011;4148;47.974;7.824;2023-07-24T11:12:28;4.07;;;2.80;;
8213;SDS011;4148;47.974;7.824;2023-07-24T11:14:58;3.87;;;2.70;;
8213;SDS011;4148;47.974;7.824;2023-07-24T11:17:33;3.73;;;2.80;;
8213;SDS011;4148;47.974;7.824;2023-07-24T11:20:05;3.13;;;2.17;;
8213;SDS011;4148;47.974;7.824;2023-07-24T11:22:37;4.33;;;2.60;;
8213;SDS011;4148;47.974;7.824;2023-07-24T11:25:06;3.47;;;2.40;;
8213;SDS011;4148;47.974;7.824;2023-07-24T11:27:39;3.70;;;2.90;;
8213;SDS011;4148;47.974;7.824;2023-07-24T11:30:09;3.77;;;3.03;;
8213;SDS011;4148;47.974;7.824;2023-07-24T11:32:38;3.27;;;2.70;;
8213;SDS011;4148;47.974;7.824;2023-07-24T11:35:07;3.90;;;2.87;;
8213;SDS011;4148;47.974;7.824;2023-07-24T11:37:37;5.03;;;2.83;;
8213;SDS011;4148;47.974;7.824;2023-07-24T11:40:05;3.47;;;2.63;;
8213;SDS011;4148;47.974;7.824;2023-07-24T11:42:37;3.67;;;2.80;;
8213;SDS011;4148;47.974;7.824;2023-07-24T11:45:06;4.60;;;3.27;;
8213;SDS011;4148;47.974;7.824;2023-07-24T11:47:45;3.53;;;3.23;;
8213;SDS011;4148;47.974;7.824;2023-07-24T11:50:15;3.70;;;3.03;;
8213;SDS011;4148;47.974;7.824;2023-07-24T11:52:45;5.20;;;3.00;;
8213;SDS011;4148;47.974;7.824;2023-07-24T11:55:15;4.33;;;3.17;;
8213;SDS011;4148;47.974;7.824;2023-07-24T11:57:43;3.67;;;2.70;;
8213;SDS011;4148;47.974;7.824;2023-07-24T12:00:22;4.93;;;2.93;;
8213;SDS011;4148;47.974;7.824;2023-07-24T12:02:50;4.20;;;3.00;;
8213;SDS011;4148;47.974;7.824;2023-07-24T12:05:18;5.47;;;3.50;;
8213;SDS011;4148;47.974;7.824;2023-07-24T12:07:48;4.30;;;3.30;;
8213;SDS011;4148;47.974;7.824;2023-07-24T12:10:24;4.70;;;3.50;;
8213;SDS011;4148;47.974;7.824;2023-07-24T12:12:58;4.60;;;3.30;;
8213;SDS011;4148;47.974;7.824;2023-07-24T12:15:26;5.20;;;3.47;;
8213;SDS011;4148;47.974;7.824;2023-07-24T12:17:54;3.67;;;3.00;;
8213;SDS011;4148;47.974;7.824;2023-07-24T12:20:23;3.30;;;2.67;;
8213;SDS011;4148;47.974;7.824;2023-07-24T12:22:52;4.77;;;3.17;;
8213;SDS011;4148;47.974;7.824;2023-07-24T12:25:20;6.27;;;3.43;;
8213;SDS011;4148;47.974;7.824;2023-07-24T12:27:48;4.40;;;3.30;;
8213;SDS011;4148;47.974;7.824;2023-07-24T12:30:16;3.70;;;2.93;;
8213;SDS011;4148;47.974;7.824;2023-07-24T12:32:44;4.43;;;3.00;;
8213;SDS011;4148;47.974;7.824;2023-07-24T12:35:12;5.00;;;3.57;;
8213;SDS011;4148;47.974;7.824;2023-07-24T12:37:42;5.00;;;3.40;;
8213;SDS011;4148;47.974;7.824;2023-07-24T12:40:12;4.30;;;3.20;;
8213;SDS011;4148;47.974;7.824;2023-07-24T12:42:40;3.40;;;2.67;;
8213;SDS011;4148;47.974;7.824;2023-07-24T12:45:08;3.33;;;2.87;;
8213;SDS011;4148;47.974;7.824;2023-07-24T12:47:36;4.13;;;3.20;;
8213;SDS011;4148;47.974;7.824;2023-07-24T12:50:04;5.53;;;3.50;;
8213;SDS011;4148;47.974;7.824;2023-07-24T12:52:33;3.90;;;2.87;;
8213;SDS011;4148;47.974;7.824;2023-07-24T12:55:01;3.93;;;3.23;;
8213;SDS011;4148;47.974;7.824;2023-07-24T12:57:31;5.23;;;2.87;;
8213;SDS011;4148;47.974;7.824;2023-07-24T12:59:58;4.80;;;3.00;;
8213;SDS011;4148;47.974;7.824;2023-07-24T13:02:26;3.67;;;2.77;;
8213;SDS011;4148;47.974;7.824;2023-07-24T13:04:55;3.93;;;2.43;;
8213;SDS011;4148;47.974;7.824;2023-07-24T13:07:23;4.03;;;3.07;;
8213;SDS011;4148;47.974;7.824;2023-07-24T13:09:50;5.00;;;2.60;;
8213;SDS011;4148;47.974;7.824;2023-07-24T13:12:19;2.90;;;2.37;;
8213;SDS011;4148;47.974;7.824;2023-07-24T13:14:48;4.70;;;3.13;;
8213;SDS011;4148;47.974;7.824;2023-07-24T13:17:16;4.73;;;2.83;;
8213;SDS011;4148;47.974;7.824;2023-07-24T13:19:44;6.47;;;3.37;;
8213;SDS011;4148;47.974;7.824;2023-07-24T13:22:11;6.43;;;3.50;;
8213;SDS011;4148;47.974;7.824;2023-07-24T13:24:39;3.50;;;3.00;;
8213;SDS011;4148;47.974;7.824;2023-07-24T13:27:07;6.23;;;4.50;;
8213;SDS011;4148;47.974;7.824;2023-07-24T13:29:35;7.67;;;4.20;;
8213;SDS011;4148;47.974;7.824;2023-07-24T13:32:05;9.60;;;5.40;;
8213;SDS011;4148;47.974;7.824;2023-07-24T13:34:33;7.13;;;4.83;;
8213;SDS011;4148;47.974;7.824;2023-07-24T13:37:01;9.23;;;5.37;;
8213;SDS011;4148;47.974;7.824;2023-07-24T13:39:28;6.93;;;5.00;;
8213;SDS011;4148;47.974;7.824;2023-07-24T13:41:57;8.20;;;5.60;;
8213;SDS011;4148;47.974;7.824;2023-07-24T13:44:25;7.70;;;5.70;;
8213;SDS011;4148;47.974;7.824;2023-07-24T13:46:53;6.80;;;4.80;;
8213;SDS011;4148;47.974;7.824;2023-07-24T13:49:23;7.10;;;5.37;;
8213;SDS011;4148;47.974;7.824;2023-07-24T13:51:51;7.33;;;4.93;;
8213;SDS011;4148;47.974;7.824;2023-07-24T13:54:19;5.83;;;5.10;;
8213;SDS011;4148;47.974;7.824;2023-07-24T13:56:47;7.97;;;5.67;;
8213;SDS011;4148;47.974;7.824;2023-07-24T13:59:15;7.63;;;5.50;;
8213;SDS011;4148;47.974;7.824;2023-07-24T14:01:43;8.87;;;5.57;;
8213;SDS011;4148;47.974;7.824;2023-07-24T14:04:11;7.33;;;5.00;;
8213;SDS011;4148;47.974;7.824;2023-07-24T14:06:42;8.23;;;5.30;;
8213;SDS011;4148;47.974;7.824;2023-07-24T14:09:10;6.87;;;5.27;;
8213;SDS011;4148;47.974;7.824;2023-07-24T14:11:38;8.60;;;5.00;;
8213;SDS011;4148;47.974;7.824;2023-07-24T14:14:06;8.70;;;5.80;;
8213;SDS011;4148;47.974;7.824;2023-07-24T14:16:35;7.53;;;5.60;;
8213;SDS011;4148;47.974;7.824;2023-07-24T14:19:06;8.90;;;5.20;;
8213;SDS011;4148;47.974;7.824;2023-07-24T14:21:34;6.30;;;5.00;;
8213;SDS011;4148;47.974;7.824;2023-07-24T14:24:03;8.07;;;5.43;;
8213;SDS011;4148;47.974;7.824;2023-07-24T14:26:31;8.90;;;5.67;;
8213;SDS011;4148;47.974;7.824;2023-07-24T14:28:59;6.60;;;5.37;;
8213;SDS011;4148;47.974;7.824;2023-07-24T14:31:27;6.23;;;5.43;;
8213;SDS011;4148;47.974;7.824;2023-07-24T14:33:56;6.20;;;5.40;;
8213;SDS011;4148;47.974;7.824;2023-07-24T14:36:24;7.13;;;5.10;;
8213;SDS011;4148;47.974;7.824;2023-07-24T14:38:54;7.97;;;6.20;;
8213;SDS011;4148;47.974;7.824;2023-07-24T14:41:23;6.60;;;5.40;;
8213;SDS011;4148;47.974;7.824;2023-07-24T14:43:51;7.20;;;5.60;;
8213;SDS011;4148;47.974;7.824;2023-07-24T14:46:19;7.10;;;5.50;;
8213;SDS011;4148;47.974;7.824;2023-07-24T14:48:47;8.20;;;6.37;;
8213;SDS011;4148;47.974;7.824;2023-07-24T14:51:16;7.10;;;5.03;;
8213;SDS011;4148;47.974;7.824;2023-07-24T14:53:44;7.77;;;4.90;;
8213;SDS011;4148;47.974;7.824;2023-07-24T14:56:12;7.50;;;4.90;;
8213;SDS011;4148;47.974;7.824;2023-07-24T14:58:41;7.40;;;5.00;;
8213;SDS011;4148;47.974;7.824;2023-07-24T15:01:11;6.80;;;4.73;;
8213;SDS011;4148;47.974;7.824;2023-07-24T15:03:39;5.70;;;4.20;;
8213;SDS011;4148;47.974;7.824;2023-07-24T15:06:07;6.40;;;4.17;;
8213;SDS011;4148;47.974;7.824;2023-07-24T15:08:35;5.20;;;4.00;;
8213;SDS011;4148;47.974;7.824;2023-07-24T15:11:03;5.43;;;4.03;;
8213;SDS011;4148;47.974;7.824;2023-07-24T15:13:31;6.20;;;4.53;;
8213;SDS011;4148;47.974;7.824;2023-07-24T15:16:00;4.30;;;3.50;;
8213;SDS011;4148;47.974;7.824;2023-07-24T15:18:28;5.80;;;3.80;;
8213;SDS011;4148;47.974;7.824;2023-07-24T15:20:56;6.10;;;4.67;;